createdAt,value
2018-07-14T00:01:07.285Z,19.50
2018-07-14T00:03:35.756Z,19.40
2018-07-14T00:06:04.514Z,19.40
2018-07-14T00:08:32.903Z,19.40
2018-07-14T00:11:01.375Z,19.30
2018-07-14T00:13:30.104Z,19.30
2018-07-14T00:15:58.875Z,19.30
2018-07-14T00:18:27.251Z,19.30
2018-07-14T00:20:55.702Z,19.30
2018-07-14T00:23:24.792Z,19.20
2018-07-14T00:25:58.660Z,19.30
2018-07-14T00:28:27.121Z,19.20
2018-07-14T00:30:56.777Z,19.20
2018-07-14T00:33:25.865Z,19.10
2018-07-14T00:35:55.083Z,19.10
2018-07-14T00:38:23.825Z,19.00
2018-07-14T00:40:52.282Z,18.80
2018-07-14T00:43:20.696Z,18.70
2018-07-14T00:45:49.559Z,18.70
2018-07-14T00:48:18.030Z,18.60
2018-07-14T00:50:46.448Z,18.60
2018-07-14T00:53:14.797Z,18.50
2018-07-14T00:55:43.341Z,18.40
2018-07-14T00:58:11.731Z,18.30
2018-07-14T01:00:41.167Z,18.30
2018-07-14T01:03:09.580Z,18.30
2018-07-14T01:05:38.063Z,18.20
2018-07-14T01:08:06.591Z,18.20
2018-07-14T01:10:35.998Z,18.10
2018-07-14T01:13:04.779Z,18.10
2018-07-14T01:15:33.232Z,18.20
2018-07-14T01:18:01.566Z,18.40
2018-07-14T01:20:31.132Z,18.50
2018-07-14T01:22:59.871Z,18.60
2018-07-14T01:25:28.725Z,18.70
2018-07-14T01:27:57.198Z,18.80
2018-07-14T01:30:25.867Z,18.70
2018-07-14T01:32:54.997Z,18.60
2018-07-14T01:35:23.868Z,18.40
2018-07-14T01:37:52.235Z,18.30
2018-07-14T01:40:20.780Z,18.30
2018-07-14T01:42:49.186Z,18.10
2018-07-14T01:45:18.056Z,18.00
2018-07-14T01:47:46.498Z,18.00
2018-07-14T01:50:15.021Z,18.10
2018-07-14T01:52:43.468Z,18.10
2018-07-14T01:55:11.980Z,18.10
2018-07-14T01:57:40.305Z,18.10
2018-07-14T02:00:08.835Z,18.00
2018-07-14T02:02:37.248Z,18.00
2018-07-14T02:05:05.865Z,18.00
2018-07-14T02:07:34.601Z,18.00
2018-07-14T02:10:02.952Z,18.00
2018-07-14T02:12:31.318Z,18.00
2018-07-14T02:14:59.866Z,17.90
2018-07-14T02:17:28.309Z,17.80
2018-07-14T02:19:56.756Z,17.80
2018-07-14T02:22:25.488Z,17.80
2018-07-14T02:27:22.031Z,17.70
2018-07-14T02:29:50.494Z,17.70
2018-07-14T02:32:18.896Z,17.60
2018-07-14T02:34:47.395Z,17.60
2018-07-14T02:37:15.805Z,17.50
2018-07-14T02:39:44.615Z,17.60
2018-07-14T02:42:13.179Z,17.50
2018-07-14T02:44:41.725Z,17.50
2018-07-14T02:47:10.143Z,17.50
2018-07-14T02:49:38.631Z,17.50
2018-07-14T02:52:07.074Z,17.50
2018-07-14T02:54:35.532Z,17.30
2018-07-14T02:59:32.108Z,17.50
2018-07-14T03:02:00.504Z,17.50
2018-07-14T03:04:28.927Z,17.50
2018-07-14T03:06:57.410Z,17.60
2018-07-14T03:09:25.942Z,17.90
2018-07-14T03:11:54.325Z,17.80
2018-07-14T03:14:22.710Z,17.70
2018-07-14T03:16:51.684Z,17.60
2018-07-14T03:19:20.278Z,17.70
2018-07-14T03:21:48.896Z,17.60
2018-07-14T03:24:17.381Z,17.50
2018-07-14T03:26:45.737Z,17.30
2018-07-14T03:29:14.188Z,17.20
2018-07-14T03:31:43.204Z,17.30
2018-07-14T03:34:11.677Z,17.20
2018-07-14T03:36:40.088Z,17.30
2018-07-14T03:39:08.671Z,17.30
2018-07-14T03:41:37.190Z,17.40
2018-07-14T03:44:05.623Z,17.50
2018-07-14T03:46:34.018Z,17.60
2018-07-14T03:49:02.505Z,17.70
2018-07-14T03:51:30.875Z,17.70
2018-07-14T03:53:59.423Z,17.60
2018-07-14T03:56:28.135Z,17.60
2018-07-14T03:58:56.581Z,17.60
2018-07-14T04:01:24.997Z,17.50
2018-07-14T04:03:54.336Z,17.40
2018-07-14T04:06:23.114Z,17.30
2018-07-14T04:08:51.830Z,17.20
2018-07-14T04:11:20.299Z,17.30
2018-07-14T04:13:48.725Z,17.20
2018-07-14T04:16:17.092Z,17.30
2018-07-14T04:18:45.535Z,17.40
2018-07-14T04:21:14.341Z,17.40
2018-07-14T04:23:43.302Z,17.50
2018-07-14T04:26:11.758Z,17.50
2018-07-14T04:28:40.428Z,17.50
2018-07-14T04:31:08.870Z,17.40
2018-07-14T04:33:37.302Z,17.30
2018-07-14T04:36:05.835Z,17.30
2018-07-14T04:38:34.459Z,17.40
2018-07-14T04:41:02.896Z,17.40
2018-07-14T04:43:31.378Z,17.40
2018-07-14T04:48:27.983Z,17.60
2018-07-14T04:50:56.773Z,17.50
2018-07-14T04:53:25.544Z,17.40
2018-07-14T04:55:53.991Z,17.50
2018-07-14T05:00:50.523Z,17.50
2018-07-14T05:03:18.913Z,17.50
2018-07-14T05:05:47.416Z,17.60
2018-07-14T05:08:16.019Z,17.50
2018-07-14T05:10:45.183Z,17.60
2018-07-14T05:13:14.198Z,17.60
2018-07-14T05:15:43.296Z,17.60
2018-07-14T05:18:11.878Z,17.60
2018-07-14T05:20:40.340Z,17.60
2018-07-14T05:23:08.839Z,17.70
2018-07-14T05:25:37.220Z,17.80
2018-07-14T05:28:06.214Z,17.90
2018-07-14T05:30:34.677Z,18.00
2018-07-14T05:33:03.039Z,17.90
2018-07-14T05:35:31.449Z,17.90
2018-07-14T05:37:59.859Z,17.90
2018-07-14T05:40:29.345Z,18.00
2018-07-14T05:42:58.094Z,18.20
2018-07-14T05:45:26.991Z,18.10
2018-07-14T05:47:55.437Z,18.00
2018-07-14T05:50:24.311Z,17.80
2018-07-14T05:52:52.699Z,17.70
2018-07-14T05:55:21.212Z,17.70
2018-07-14T05:57:49.599Z,17.70
2018-07-14T06:00:18.470Z,17.70
2018-07-14T06:02:46.897Z,17.80
2018-07-14T06:05:15.604Z,17.90
2018-07-14T06:07:44.444Z,17.90
2018-07-14T06:10:13.479Z,18.00
2018-07-14T06:12:41.853Z,18.10
2018-07-14T06:15:10.434Z,18.10
2018-07-14T06:17:38.864Z,18.10
2018-07-14T06:20:08.612Z,18.30
2018-07-14T06:22:37.017Z,18.50
2018-07-14T06:25:05.856Z,18.50
2018-07-14T06:27:34.186Z,18.50
2018-07-14T06:30:02.666Z,18.40
2018-07-14T06:32:31.036Z,18.30
2018-07-14T06:34:59.916Z,18.30
2018-07-14T06:37:28.303Z,18.30
2018-07-14T06:39:56.782Z,18.30
2018-07-14T06:42:25.197Z,18.60
2018-07-14T06:44:53.753Z,18.50
2018-07-14T06:47:22.444Z,18.50
2018-07-14T06:49:50.937Z,18.40
2018-07-14T06:52:19.411Z,18.40
2018-07-14T06:54:47.926Z,18.60
2018-07-14T06:57:16.328Z,18.70
2018-07-14T06:59:45.555Z,18.70
2018-07-14T07:02:14.606Z,18.70
2018-07-14T07:04:43.383Z,18.70
2018-07-14T07:07:11.796Z,18.70
2018-07-14T07:09:40.298Z,18.70
2018-07-14T07:12:08.718Z,18.80
2018-07-14T08:36:35.324Z,19.20
2018-07-14T08:39:04.666Z,20.90
2018-07-14T08:41:33.067Z,20.90
2018-07-14T08:44:01.504Z,21.00
2018-07-14T08:46:30.088Z,21.10
2018-07-14T08:48:58.536Z,21.20
2018-07-14T08:51:27.453Z,21.10
2018-07-14T08:53:56.211Z,21.10
2018-07-14T08:56:24.676Z,21.10
2018-07-14T08:58:53.203Z,21.30
2018-07-14T09:01:21.684Z,21.30
2018-07-14T09:03:50.162Z,21.50
2018-07-14T09:06:18.560Z,21.60
2018-07-14T09:08:47.011Z,21.70
2018-07-14T09:11:15.499Z,21.70
2018-07-14T09:13:44.883Z,21.70
2018-07-14T09:16:13.438Z,21.80
2018-07-14T09:18:41.839Z,21.70
2018-07-14T09:21:10.299Z,21.60
2018-07-14T09:23:38.796Z,21.40
2018-07-14T09:26:07.382Z,21.40
2018-07-14T09:28:35.978Z,21.30
2018-07-14T09:31:04.416Z,21.40
2018-07-14T09:33:32.922Z,21.30
2018-07-14T09:36:01.314Z,21.30
2018-07-14T09:38:29.777Z,21.40
2018-07-14T09:40:58.169Z,21.50
2018-07-14T09:43:26.563Z,21.70
2018-07-14T09:45:54.989Z,21.90
2018-07-14T09:48:23.511Z,22.00
2018-07-14T09:50:51.909Z,22.10
2018-07-14T09:53:20.283Z,22.20
2018-07-14T09:55:48.816Z,22.40
2018-07-14T09:58:17.262Z,22.50
2018-07-14T10:00:51.026Z,22.60
2018-07-14T10:05:47.892Z,22.70
2018-07-14T10:08:16.559Z,22.70
2018-07-14T10:10:45.771Z,22.60
2018-07-14T10:13:14.862Z,22.60
2018-07-14T10:15:43.923Z,22.60
2018-07-14T10:18:12.627Z,22.60
2018-07-14T10:20:42.161Z,22.60
2018-07-14T10:23:10.594Z,22.60
2018-07-14T10:25:39.146Z,22.60
2018-07-14T10:28:07.736Z,22.70
2018-07-14T10:30:37.211Z,22.80
2018-07-14T10:33:05.682Z,22.60
2018-07-14T10:35:34.166Z,22.50
2018-07-14T10:38:02.776Z,22.30
2018-07-14T10:40:32.288Z,22.10
2018-07-14T10:43:00.723Z,21.90
2018-07-14T10:45:29.262Z,21.70
2018-07-14T10:47:57.678Z,21.50
2018-07-14T10:50:27.190Z,21.30
2018-07-14T10:52:55.590Z,20.80
2018-07-14T10:55:24.140Z,20.50
2018-07-14T10:57:52.458Z,20.10
2018-07-14T11:00:21.292Z,20.10
2018-07-14T11:02:49.696Z,19.90
2018-07-14T11:05:18.199Z,20.00
2018-07-14T11:07:46.748Z,20.00
2018-07-14T11:10:15.973Z,20.10
2018-07-14T11:12:45.004Z,20.10
2018-07-14T11:15:13.519Z,19.80
2018-07-14T11:17:41.981Z,19.80
2018-07-14T11:20:10.607Z,19.80
2018-07-14T11:22:38.986Z,19.80
2018-07-14T11:25:07.433Z,19.90
2018-07-14T11:27:35.780Z,19.50
2018-07-14T11:30:04.603Z,19.40
2018-07-14T11:32:33.046Z,19.40
2018-07-14T11:35:01.439Z,19.30
2018-07-14T11:37:29.845Z,19.30
2018-07-14T11:39:58.481Z,19.30
2018-07-14T11:42:27.347Z,19.40
2018-07-14T11:44:55.820Z,19.50
2018-07-14T11:47:24.262Z,19.50
2018-07-14T11:49:52.894Z,19.50
2018-07-14T11:52:21.294Z,19.40
2018-07-14T11:54:49.738Z,19.50
2018-07-14T11:57:18.388Z,19.50
2018-07-14T11:59:46.795Z,19.60
2018-07-14T12:02:15.245Z,19.90
2018-07-14T12:04:43.989Z,20.00
2018-07-14T12:07:12.759Z,20.00
2018-07-14T12:09:41.825Z,20.20
2018-07-14T12:12:10.387Z,20.30
2018-07-14T12:14:38.804Z,20.30
2018-07-14T12:17:07.359Z,20.40
2018-07-14T12:19:35.895Z,20.30
2018-07-14T12:22:04.303Z,20.40
2018-07-14T12:24:32.702Z,20.60
2018-07-14T12:27:01.160Z,20.80
2018-07-14T12:29:29.615Z,21.00
2018-07-14T12:31:58.021Z,21.00
2018-07-14T12:34:26.471Z,21.30
2018-07-14T12:36:54.884Z,21.40
2018-07-14T12:39:23.452Z,21.40
2018-07-14T12:41:52.888Z,21.40
2018-07-14T12:44:21.391Z,21.40
2018-07-14T12:46:49.822Z,21.50
2018-07-14T12:49:18.276Z,21.40
2018-07-14T12:51:46.739Z,21.60
2018-07-14T12:54:15.209Z,21.70
2018-07-14T12:56:43.611Z,21.70
2018-07-14T12:59:12.136Z,21.70
2018-07-14T13:01:40.751Z,21.80
2018-07-14T13:04:09.561Z,21.70
2018-07-14T13:06:38.006Z,21.80
2018-07-14T13:09:06.871Z,21.90
2018-07-14T13:11:35.240Z,22.10
2018-07-14T13:14:03.854Z,22.40
2018-07-14T13:16:32.266Z,22.50
2018-07-14T13:19:00.687Z,22.70
2018-07-14T13:21:29.071Z,22.70
2018-07-14T13:23:57.583Z,22.70
2018-07-14T13:26:26.413Z,22.80
2018-07-14T13:28:54.794Z,22.70
2018-07-14T13:31:23.243Z,22.60
2018-07-14T13:33:51.595Z,22.70
2018-07-14T13:36:20.473Z,22.80
2018-07-14T13:38:51.735Z,23.00
2018-07-14T13:41:18.255Z,23.00
2018-07-14T13:43:46.609Z,23.10
2018-07-14T13:46:15.802Z,23.40
2018-07-14T13:48:44.670Z,23.50
2018-07-14T13:51:13.154Z,23.60
2018-07-14T13:53:41.874Z,23.70
2018-07-14T13:56:10.349Z,23.70
2018-07-14T13:58:38.774Z,23.70
2018-07-14T14:01:07.225Z,23.80
2018-07-14T14:03:36.022Z,23.80
2018-07-14T14:06:04.523Z,23.80
2018-07-14T14:08:33.296Z,23.90
2018-07-14T14:11:01.672Z,23.90
2018-07-14T14:13:30.004Z,24.00
2018-07-14T14:15:58.581Z,24.10
2018-07-14T14:18:27.072Z,24.20
2018-07-14T14:20:55.543Z,24.20
2018-07-14T14:23:23.965Z,24.40
2018-07-14T14:25:52.606Z,24.30
2018-07-14T14:28:20.998Z,24.30
2018-07-14T14:30:49.463Z,24.30
2018-07-14T14:33:17.895Z,24.30
2018-07-14T14:35:46.471Z,24.40
2018-07-14T14:38:15.592Z,24.50
2018-07-14T14:40:46.149Z,24.50
2018-07-14T14:45:44.391Z,24.80
2018-07-14T14:48:12.736Z,24.80
2018-07-14T14:50:42.299Z,24.90
2018-07-14T14:53:10.728Z,25.00
2018-07-14T14:55:39.239Z,25.10
2018-07-14T14:58:08.733Z,25.20
2018-07-14T15:00:38.267Z,25.40
2018-07-14T15:03:06.750Z,25.50
2018-07-14T15:05:35.559Z,25.50
2018-07-14T15:08:03.973Z,25.50
2018-07-14T15:10:33.465Z,25.40
2018-07-14T15:13:01.929Z,25.50
2018-07-14T15:15:30.839Z,25.40
2018-07-14T15:17:59.254Z,25.30
2018-07-14T15:20:28.956Z,25.40
2018-07-14T15:22:57.764Z,25.40
2018-07-14T15:25:26.260Z,25.50
2018-07-14T15:27:54.648Z,25.60
2018-07-14T15:30:24.303Z,25.60
2018-07-14T15:32:52.896Z,25.60
2018-07-14T15:35:21.575Z,25.50
2018-07-14T15:37:50.123Z,25.40
2018-07-14T15:40:18.906Z,25.50
2018-07-14T15:42:47.724Z,25.30
2018-07-14T15:45:16.492Z,25.20
2018-07-14T15:47:45.559Z,25.30
2018-07-14T15:50:14.350Z,25.20
2018-07-14T15:52:42.776Z,25.20
2018-07-14T15:55:11.341Z,25.00
2018-07-14T15:57:40.070Z,24.90
2018-07-14T16:00:08.774Z,24.90
2018-07-14T16:02:37.278Z,24.70
2018-07-14T16:05:06.674Z,24.60
2018-07-14T16:07:35.167Z,24.40
2018-07-14T16:10:03.741Z,24.20
2018-07-14T16:12:32.189Z,24.10
2018-07-14T16:15:01.038Z,24.10
2018-07-14T16:17:29.420Z,24.10
2018-07-14T16:19:58.266Z,23.90
2018-07-14T16:22:26.699Z,23.90
2018-07-14T16:24:55.144Z,23.90
2018-07-14T16:27:23.495Z,23.80
2018-07-14T16:29:51.952Z,23.70
2018-07-14T16:32:20.332Z,23.70
2018-07-14T16:34:48.826Z,23.60
2018-07-14T16:37:17.218Z,23.60
2018-07-14T16:39:46.192Z,23.60
2018-07-14T16:42:15.280Z,23.50
2018-07-14T16:44:44.376Z,23.50
2018-07-14T16:47:12.787Z,23.50
2018-07-14T16:49:41.371Z,23.40
2018-07-14T16:52:09.780Z,23.40
2018-07-14T16:54:38.307Z,23.30
2018-07-14T16:57:06.670Z,23.10
2018-07-14T16:59:35.096Z,23.20
2018-07-14T17:02:03.505Z,23.10
2018-07-14T17:04:32.213Z,23.00
2018-07-14T17:07:00.742Z,22.80
2018-07-14T17:09:29.285Z,22.70
2018-07-14T17:11:57.762Z,22.60
2018-07-14T17:14:26.360Z,22.50
2018-07-14T17:16:54.730Z,22.40
2018-07-14T17:19:23.157Z,22.30
2018-07-14T17:21:51.629Z,22.20
2018-07-14T17:24:20.329Z,22.10
2018-07-14T17:29:16.965Z,22.10
2018-07-14T17:31:45.976Z,22.00
2018-07-14T17:34:14.490Z,21.90
2018-07-14T17:36:43.133Z,21.90
2018-07-14T17:39:11.827Z,21.90
2018-07-14T17:41:42.836Z,21.80
2018-07-14T17:44:11.630Z,21.80
2018-07-14T17:46:40.066Z,21.70
2018-07-14T17:49:08.646Z,21.70
2018-07-14T17:51:37.487Z,21.70
2018-07-14T17:54:06.182Z,21.60
2018-07-14T17:56:34.576Z,21.60
2018-07-14T17:59:03.167Z,21.60
2018-07-14T18:01:31.628Z,21.60
2018-07-14T18:04:00.137Z,21.50
2018-07-14T18:06:28.565Z,21.40
2018-07-14T18:08:57.105Z,21.30
2018-07-14T18:11:25.516Z,21.30
2018-07-14T18:13:54.119Z,21.30
2018-07-14T18:16:22.853Z,21.20
2018-07-14T18:18:51.527Z,21.20
2018-07-14T18:21:19.891Z,21.10
2018-07-14T18:23:48.520Z,21.10
2018-07-14T18:26:17.021Z,21.10
2018-07-14T18:28:46.030Z,21.10
2018-07-14T18:31:14.535Z,21.10
2018-07-14T18:33:43.122Z,21.10
2018-07-14T18:36:11.581Z,21.10
2018-07-14T18:38:40.326Z,21.10
2018-07-14T18:41:08.746Z,21.10
2018-07-14T18:43:37.305Z,21.00
2018-07-14T18:46:05.822Z,20.90
2018-07-14T18:48:34.455Z,20.90
2018-07-14T18:51:03.043Z,20.80
2018-07-14T18:53:31.424Z,20.80
2018-07-14T18:55:59.825Z,20.70
2018-07-14T18:58:28.434Z,20.70
2018-07-14T19:00:56.850Z,20.70
2018-07-14T19:03:25.339Z,20.70
2018-07-14T19:05:53.673Z,20.70
2018-07-14T19:08:22.180Z,20.60
2018-07-14T19:10:50.513Z,20.60
2018-07-14T19:13:19.003Z,20.50
2018-07-14T19:15:47.999Z,20.50
2018-07-14T19:18:16.851Z,20.50
2018-07-14T19:20:45.818Z,20.40
2018-07-14T19:23:14.553Z,20.40
2018-07-14T19:25:42.936Z,20.40
2018-07-14T19:28:11.556Z,20.40
2018-07-14T19:30:39.924Z,20.50
2018-07-14T19:33:08.447Z,20.50
2018-07-14T19:36:40.081Z,20.50
2018-07-14T19:39:08.627Z,20.50
2018-07-14T19:41:37.210Z,20.50
2018-07-14T19:44:05.674Z,20.40
2018-07-14T19:46:34.163Z,20.40
2018-07-14T19:49:02.474Z,20.30
2018-07-14T19:51:31.067Z,20.20
2018-07-14T19:53:59.750Z,20.20
2018-07-14T19:56:28.242Z,20.20
2018-07-14T19:58:56.596Z,20.20
2018-07-14T20:01:25.114Z,20.20
2018-07-14T20:03:53.483Z,20.10
2018-07-14T20:06:22.061Z,20.10
2018-07-14T20:08:50.590Z,20.10
2018-07-14T20:11:19.116Z,20.00
2018-07-14T20:13:47.893Z,20.10
2018-07-14T20:16:16.815Z,20.00
2018-07-14T20:18:45.940Z,20.00
2018-07-14T20:21:14.592Z,19.90
2018-07-14T20:23:42.927Z,19.90
2018-07-14T20:26:11.467Z,19.90
2018-07-14T20:28:39.888Z,19.90
2018-07-14T20:31:08.510Z,19.90
2018-07-14T20:33:36.996Z,20.10
2018-07-14T20:36:05.550Z,20.20
2018-07-14T20:38:33.971Z,20.20
2018-07-14T20:41:02.450Z,20.10
2018-07-14T20:43:30.904Z,20.20
2018-07-14T20:45:59.404Z,20.20
2018-07-14T20:48:27.801Z,20.10
2018-07-14T20:50:56.297Z,20.10
2018-07-14T20:53:24.663Z,20.10
2018-07-14T20:55:53.247Z,20.10
2018-07-14T20:58:21.961Z,20.10
2018-07-14T21:00:50.439Z,20.00
2018-07-14T21:03:18.762Z,20.00
2018-07-14T21:05:47.238Z,20.10
2018-07-14T21:08:15.646Z,20.10
2018-07-14T21:10:46.187Z,20.00
2018-07-14T21:13:15.604Z,20.00
2018-07-14T21:15:44.654Z,19.90
2018-07-14T21:18:13.130Z,19.80
2018-07-14T21:20:42.671Z,19.80
2018-07-14T21:23:11.138Z,19.70
2018-07-14T21:25:39.593Z,19.70
2018-07-14T21:28:08.060Z,19.70
2018-07-14T21:30:37.549Z,19.70
2018-07-14T21:33:06.327Z,19.60
2018-07-14T21:35:35.248Z,19.50
2018-07-14T21:38:03.697Z,19.50
2018-07-14T21:40:32.240Z,19.50
2018-07-14T21:43:00.652Z,19.40
2018-07-14T21:45:29.164Z,19.40
2018-07-14T21:47:57.549Z,19.40
2018-07-14T21:50:26.118Z,19.40
2018-07-14T21:52:54.506Z,19.30
2018-07-14T21:55:23.053Z,19.30
2018-07-14T21:57:51.503Z,19.20
2018-07-14T22:02:57.731Z,19.10
2018-07-14T22:05:26.161Z,19.10
2018-07-14T22:07:58.532Z,19.00
2018-07-14T22:10:27.051Z,19.10
2018-07-14T22:12:55.505Z,19.00
2018-07-14T22:15:24.250Z,19.00
2018-07-14T22:17:53.527Z,19.00
2018-07-14T22:20:28.915Z,19.00
2018-07-14T22:22:57.679Z,18.80
2018-07-14T22:25:26.176Z,18.70
2018-07-14T22:27:54.612Z,18.60
2018-07-14T22:30:23.517Z,18.60
2018-07-14T22:32:51.883Z,18.60
2018-07-14T22:35:20.481Z,18.60
2018-07-14T22:37:48.896Z,18.50
2018-07-14T22:40:17.426Z,18.50
2018-07-14T22:42:46.863Z,18.40
2018-07-14T22:45:15.954Z,18.30
2018-07-14T22:47:44.848Z,18.30
2018-07-14T22:50:13.331Z,18.30
2018-07-14T22:53:12.585Z,18.30
2018-07-14T22:55:40.913Z,18.40
2018-07-14T22:58:09.549Z,18.40
2018-07-14T23:00:38.367Z,18.30
2018-07-14T23:03:07.247Z,18.10
2018-07-14T23:05:35.677Z,18.10
2018-07-14T23:08:04.359Z,18.30
2018-07-14T23:10:32.824Z,18.30
2018-07-14T23:13:01.691Z,18.20
2018-07-14T23:15:30.455Z,18.00
2018-07-14T23:17:58.947Z,17.90
2018-07-14T23:20:27.379Z,17.80
2018-07-14T23:22:56.378Z,17.70
2018-07-14T23:25:25.096Z,17.70
2018-07-14T23:27:53.640Z,17.80
2018-07-14T23:30:22.122Z,17.80
2018-07-14T23:32:50.693Z,17.80
2018-07-14T23:35:19.136Z,17.90
2018-07-14T23:37:47.990Z,18.00
2018-07-14T23:40:16.399Z,18.10
2018-07-14T23:42:45.517Z,18.00
2018-07-14T23:45:13.961Z,18.10
2018-07-14T23:47:42.479Z,18.00
2018-07-14T23:50:10.978Z,18.10
2018-07-14T23:52:39.431Z,18.00
2018-07-14T23:55:08.125Z,17.90
2018-07-14T23:57:37.048Z,17.90
